sensor_id;sensor_type;location;lat;lon;timestamp;P1;durP1;ratioP1;P2;durP2;ratioP2
69822;SDS011;57119;52.516;13.508;2022-12-07T00:01:20;15.97;;;5.30;;
69822;SDS011;57119;52.516;13.508;2022-12-07T00:03:53;15.38;;;5.22;;
69822;SDS011;57119;52.516;13.508;2022-12-07T00:06:22;12.68;;;5.68;;
69822;SDS011;57119;52.516;13.508;2022-12-07T00:08:48;14.27;;;5.70;;
69822;SDS011;57119;52.516;13.508;2022-12-07T00:11:15;12.55;;;4.95;;
69822;SDS011;57119;52.516;13.508;2022-12-07T00:13:44;15.05;;;5.95;;
69822;SDS011;57119;52.516;13.508;2022-12-07T00:16:14;13.88;;;5.47;;
69822;SDS011;57119;52.516;13.508;2022-12-07T00:18:41;13.10;;;5.43;;
69822;SDS011;57119;52.516;13.508;2022-12-07T00:21:11;15.40;;;6.47;;
69822;SDS011;57119;52.516;13.508;2022-12-07T00:23:41;14.52;;;5.60;;
69822;SDS011;57119;52.516;13.508;2022-12-07T00:26:10;16.65;;;5.38;;
69822;SDS011;57119;52.516;13.508;2022-12-07T00:28:40;13.88;;;5.32;;
69822;SDS011;57119;52.516;13.508;2022-12-07T00:31:08;14.20;;;4.60;;
69822;SDS011;57119;52.516;13.508;2022-12-07T00:33:38;13.80;;;4.73;;
69822;SDS011;57119;52.516;13.508;2022-12-07T00:36:05;12.70;;;5.00;;
69822;SDS011;57119;52.516;13.508;2022-12-07T00:38:34;12.90;;;4.87;;
69822;SDS011;57119;52.516;13.508;2022-12-07T00:41:02;11.95;;;4.60;;
69822;SDS011;57119;52.516;13.508;2022-12-07T00:43:30;12.50;;;4.90;;
69822;SDS011;57119;52.516;13.508;2022-12-07T00:45:58;13.38;;;5.18;;
69822;SDS011;57119;52.516;13.508;2022-12-07T00:48:24;11.40;;;4.93;;
69822;SDS011;57119;52.516;13.508;2022-12-07T00:50:50;11.45;;;4.40;;
69822;SDS011;57119;52.516;13.508;2022-12-07T00:53:15;11.60;;;4.70;;
69822;SDS011;57119;52.516;13.508;2022-12-07T00:55:42;13.55;;;5.32;;
69822;SDS011;57119;52.516;13.508;2022-12-07T00:58:07;11.45;;;4.93;;
69822;SDS011;57119;52.516;13.508;2022-12-07T01:00:35;11.95;;;5.05;;
69822;SDS011;57119;52.516;13.508;2022-12-07T01:03:02;13.05;;;4.63;;
69822;SDS011;57119;52.516;13.508;2022-12-07T01:05:29;11.27;;;4.73;;
69822;SDS011;57119;52.516;13.508;2022-12-07T01:07:54;9.75;;;3.75;;
69822;SDS011;57119;52.516;13.508;2022-12-07T01:10:20;11.07;;;4.40;;
69822;SDS011;57119;52.516;13.508;2022-12-07T01:12:51;11.40;;;4.30;;
69822;SDS011;57119;52.516;13.508;2022-12-07T01:15:16;12.87;;;5.30;;
69822;SDS011;57119;52.516;13.508;2022-12-07T01:17:42;13.73;;;5.43;;
69822;SDS011;57119;52.516;13.508;2022-12-07T01:20:08;12.47;;;5.10;;
69822;SDS011;57119;52.516;13.508;2022-12-07T01:22:37;12.77;;;5.15;;
69822;SDS011;57119;52.516;13.508;2022-12-07T01:25:12;11.40;;;4.70;;
69822;SDS011;57119;52.516;13.508;2022-12-07T01:27:37;14.17;;;5.60;;
69822;SDS011;57119;52.516;13.508;2022-12-07T01:30:04;14.25;;;4.82;;
69822;SDS011;57119;52.516;13.508;2022-12-07T01:32:34;11.70;;;4.68;;
69822;SDS011;57119;52.516;13.508;2022-12-07T01:34:59;12.83;;;4.60;;
69822;SDS011;57119;52.516;13.508;2022-12-07T01:37:25;11.05;;;4.30;;
69822;SDS011;57119;52.516;13.508;2022-12-07T01:39:51;12.17;;;4.87;;
69822;SDS011;57119;52.516;13.508;2022-12-07T01:42:17;11.77;;;5.38;;
69822;SDS011;57119;52.516;13.508;2022-12-07T01:47:46;10.43;;;4.33;;
69822;SDS011;57119;52.516;13.508;2022-12-07T01:50:21;11.48;;;5.30;;
69822;SDS011;57119;52.516;13.508;2022-12-07T01:52:51;13.63;;;5.57;;
69822;SDS011;57119;52.516;13.508;2022-12-07T01:55:27;11.95;;;4.85;;
69822;SDS011;57119;52.516;13.508;2022-12-07T01:57:53;10.48;;;4.20;;
69822;SDS011;57119;52.516;13.508;2022-12-07T02:00:20;9.47;;;4.40;;
69822;SDS011;57119;52.516;13.508;2022-12-07T02:02:47;10.98;;;4.43;;
69822;SDS011;57119;52.516;13.508;2022-12-07T02:05:17;8.90;;;3.88;;
69822;SDS011;57119;52.516;13.508;2022-12-07T02:07:59;10.35;;;3.92;;
69822;SDS011;57119;52.516;13.508;2022-12-07T02:10:28;8.53;;;3.53;;
69822;SDS011;57119;52.516;13.508;2022-12-07T02:12:57;9.07;;;3.38;;
69822;SDS011;57119;52.516;13.508;2022-12-07T02:15:36;8.43;;;3.28;;
69822;SDS011;57119;52.516;13.508;2022-12-07T02:18:25;9.10;;;3.40;;
69822;SDS011;57119;52.516;13.508;2022-12-07T02:31:55;8.82;;;3.72;;
69822;SDS011;57119;52.516;13.508;2022-12-07T02:40:40;8.63;;;3.08;;
69822;SDS011;57119;52.516;13.508;2022-12-07T02:43:19;9.32;;;4.28;;
69822;SDS011;57119;52.516;13.508;2022-12-07T02:45:49;7.93;;;3.33;;
69822;SDS011;57119;52.516;13.508;2022-12-07T02:48:17;10.05;;;4.13;;
69822;SDS011;57119;52.516;13.508;2022-12-07T02:50:51;9.30;;;3.70;;
69822;SDS011;57119;52.516;13.508;2022-12-07T02:53:30;10.90;;;4.30;;
69822;SDS011;57119;52.516;13.508;2022-12-07T02:55:57;9.50;;;3.60;;
69822;SDS011;57119;52.516;13.508;2022-12-07T03:01:50;10.70;;;4.18;;
69822;SDS011;57119;52.516;13.508;2022-12-07T03:06:50;9.52;;;4.10;;
69822;SDS011;57119;52.516;13.508;2022-12-07T03:09:29;12.25;;;5.32;;
69822;SDS011;57119;52.516;13.508;2022-12-07T03:12:03;11.05;;;4.10;;
69822;SDS011;57119;52.516;13.508;2022-12-07T03:14:55;11.48;;;4.93;;
69822;SDS011;57119;52.516;13.508;2022-12-07T03:17:26;13.32;;;4.50;;
69822;SDS011;57119;52.516;13.508;2022-12-07T03:19:58;9.13;;;4.05;;
69822;SDS011;57119;52.516;13.508;2022-12-07T03:22:29;13.85;;;5.00;;
69822;SDS011;57119;52.516;13.508;2022-12-07T03:25:03;10.70;;;4.40;;
69822;SDS011;57119;52.516;13.508;2022-12-07T03:27:33;10.20;;;4.50;;
69822;SDS011;57119;52.516;13.508;2022-12-07T03:30:07;11.17;;;4.57;;
69822;SDS011;57119;52.516;13.508;2022-12-07T03:32:44;11.25;;;4.55;;
69822;SDS011;57119;52.516;13.508;2022-12-07T03:35:27;10.45;;;4.25;;
69822;SDS011;57119;52.516;13.508;2022-12-07T03:38:00;11.75;;;4.78;;
69822;SDS011;57119;52.516;13.508;2022-12-07T03:43:17;11.95;;;4.43;;
69822;SDS011;57119;52.516;13.508;2022-12-07T03:46:31;12.25;;;5.10;;
69822;SDS011;57119;52.516;13.508;2022-12-07T03:51:41;12.60;;;5.00;;
69822;SDS011;57119;52.516;13.508;2022-12-07T03:54:23;13.38;;;5.10;;
69822;SDS011;57119;52.516;13.508;2022-12-07T03:56:53;14.32;;;5.55;;
69822;SDS011;57119;52.516;13.508;2022-12-07T03:59:20;11.30;;;4.75;;
69822;SDS011;57119;52.516;13.508;2022-12-07T04:01:54;12.05;;;5.00;;
69822;SDS011;57119;52.516;13.508;2022-12-07T04:04:26;14.15;;;4.70;;
69822;SDS011;57119;52.516;13.508;2022-12-07T04:06:53;10.88;;;4.85;;
69822;SDS011;57119;52.516;13.508;2022-12-07T04:09:19;13.55;;;5.35;;
69822;SDS011;57119;52.516;13.508;2022-12-07T04:11:47;14.18;;;5.00;;
69822;SDS011;57119;52.516;13.508;2022-12-07T04:14:13;15.85;;;5.20;;
69822;SDS011;57119;52.516;13.508;2022-12-07T04:16:49;13.93;;;5.70;;
69822;SDS011;57119;52.516;13.508;2022-12-07T04:19:18;12.97;;;5.37;;
69822;SDS011;57119;52.516;13.508;2022-12-07T04:21:52;15.57;;;5.88;;
69822;SDS011;57119;52.516;13.508;2022-12-07T04:24:18;13.93;;;6.03;;
69822;SDS011;57119;52.516;13.508;2022-12-07T04:26:44;15.88;;;6.07;;
69822;SDS011;57119;52.516;13.508;2022-12-07T04:29:10;16.10;;;5.73;;
69822;SDS011;57119;52.516;13.508;2022-12-07T04:31:36;14.38;;;5.13;;
69822;SDS011;57119;52.516;13.508;2022-12-07T04:34:02;15.88;;;6.55;;
69822;SDS011;57119;52.516;13.508;2022-12-07T04:36:28;15.80;;;6.30;;
69822;SDS011;57119;52.516;13.508;2022-12-07T04:38:54;17.83;;;7.47;;
69822;SDS011;57119;52.516;13.508;2022-12-07T04:41:20;16.67;;;7.18;;
69822;SDS011;57119;52.516;13.508;2022-12-07T04:43:58;18.35;;;7.60;;
69822;SDS011;57119;52.516;13.508;2022-12-07T04:46:26;17.55;;;7.22;;
69822;SDS011;57119;52.516;13.508;2022-12-07T04:49:00;20.60;;;7.57;;
69822;SDS011;57119;52.516;13.508;2022-12-07T04:51:27;18.15;;;6.97;;
69822;SDS011;57119;52.516;13.508;2022-12-07T04:53:56;18.30;;;7.55;;
69822;SDS011;57119;52.516;13.508;2022-12-07T04:56:22;18.20;;;7.93;;
69822;SDS011;57119;52.516;13.508;2022-12-07T04:58:49;21.92;;;8.85;;
69822;SDS011;57119;52.516;13.508;2022-12-07T05:01:17;21.20;;;8.63;;
69822;SDS011;57119;52.516;13.508;2022-12-07T05:03:46;20.55;;;7.63;;
69822;SDS011;57119;52.516;13.508;2022-12-07T05:06:14;21.92;;;8.35;;
69822;SDS011;57119;52.516;13.508;2022-12-07T05:08:43;21.67;;;9.60;;
69822;SDS011;57119;52.516;13.508;2022-12-07T05:11:09;22.45;;;8.68;;
69822;SDS011;57119;52.516;13.508;2022-12-07T05:13:55;22.27;;;9.85;;
69822;SDS011;57119;52.516;13.508;2022-12-07T05:16:21;23.60;;;9.45;;
69822;SDS011;57119;52.516;13.508;2022-12-07T05:18:47;22.50;;;9.50;;
69822;SDS011;57119;52.516;13.508;2022-12-07T05:21:12;22.93;;;9.50;;
69822;SDS011;57119;52.516;13.508;2022-12-07T05:23:37;24.20;;;10.02;;
69822;SDS011;57119;52.516;13.508;2022-12-07T05:26:03;23.53;;;9.10;;
69822;SDS011;57119;52.516;13.508;2022-12-07T05:28:29;25.38;;;9.63;;
69822;SDS011;57119;52.516;13.508;2022-12-07T05:31:03;25.08;;;8.82;;
69822;SDS011;57119;52.516;13.508;2022-12-07T05:33:32;24.90;;;10.27;;
69822;SDS011;57119;52.516;13.508;2022-12-07T05:35:58;25.63;;;9.80;;
69822;SDS011;57119;52.516;13.508;2022-12-07T05:38:24;26.95;;;10.00;;
69822;SDS011;57119;52.516;13.508;2022-12-07T05:40:59;25.63;;;9.55;;
69822;SDS011;57119;52.516;13.508;2022-12-07T05:43:26;26.83;;;10.05;;
69822;SDS011;57119;52.516;13.508;2022-12-07T05:45:52;28.43;;;9.80;;
69822;SDS011;57119;52.516;13.508;2022-12-07T05:48:17;31.00;;;10.07;;
69822;SDS011;57119;52.516;13.508;2022-12-07T05:50:43;28.92;;;10.45;;
69822;SDS011;57119;52.516;13.508;2022-12-07T05:53:08;22.20;;;9.00;;
69822;SDS011;57119;52.516;13.508;2022-12-07T05:55:34;27.00;;;10.27;;
69822;SDS011;57119;52.516;13.508;2022-12-07T05:57:59;28.48;;;11.05;;
69822;SDS011;57119;52.516;13.508;2022-12-07T06:00:48;29.05;;;11.13;;
69822;SDS011;57119;52.516;13.508;2022-12-07T06:03:14;30.20;;;11.07;;
69822;SDS011;57119;52.516;13.508;2022-12-07T06:05:40;27.30;;;10.65;;
69822;SDS011;57119;52.516;13.508;2022-12-07T06:08:06;28.52;;;11.30;;
69822;SDS011;57119;52.516;13.508;2022-12-07T06:10:40;27.92;;;10.70;;
69822;SDS011;57119;52.516;13.508;2022-12-07T06:13:09;31.83;;;11.65;;
69822;SDS011;57119;52.516;13.508;2022-12-07T06:15:35;31.52;;;11.20;;
69822;SDS011;57119;52.516;13.508;2022-12-07T06:18:02;27.85;;;11.30;;
69822;SDS011;57119;52.516;13.508;2022-12-07T06:20:27;29.27;;;12.00;;
69822;SDS011;57119;52.516;13.508;2022-12-07T06:22:55;27.60;;;11.18;;
69822;SDS011;57119;52.516;13.508;2022-12-07T06:25:21;28.00;;;11.63;;
69822;SDS011;57119;52.516;13.508;2022-12-07T06:27:52;29.98;;;11.25;;
69822;SDS011;57119;52.516;13.508;2022-12-07T06:30:20;30.15;;;11.82;;
69822;SDS011;57119;52.516;13.508;2022-12-07T06:32:46;32.55;;;13.07;;
69822;SDS011;57119;52.516;13.508;2022-12-07T06:35:13;31.77;;;12.00;;
69822;SDS011;57119;52.516;13.508;2022-12-07T06:37:39;31.15;;;11.50;;
69822;SDS011;57119;52.516;13.508;2022-12-07T06:40:05;27.90;;;10.87;;
69822;SDS011;57119;52.516;13.508;2022-12-07T06:42:34;29.55;;;11.68;;
69822;SDS011;57119;52.516;13.508;2022-12-07T06:45:03;25.63;;;10.60;;
69822;SDS011;57119;52.516;13.508;2022-12-07T06:47:31;25.70;;;10.30;;
69822;SDS011;57119;52.516;13.508;2022-12-07T06:49:57;27.53;;;10.47;;
69822;SDS011;57119;52.516;13.508;2022-12-07T06:52:23;29.90;;;10.50;;
69822;SDS011;57119;52.516;13.508;2022-12-07T06:54:51;27.63;;;10.23;;
69822;SDS011;57119;52.516;13.508;2022-12-07T06:57:20;24.88;;;10.05;;
69822;SDS011;57119;52.516;13.508;2022-12-07T06:59:48;26.50;;;11.40;;
69822;SDS011;57119;52.516;13.508;2022-12-07T07:02:19;22.63;;;9.82;;
69822;SDS011;57119;52.516;13.508;2022-12-07T07:04:54;26.77;;;11.45;;
69822;SDS011;57119;52.516;13.508;2022-12-07T07:07:46;27.53;;;9.27;;
69822;SDS011;57119;52.516;13.508;2022-12-07T07:10:15;27.88;;;9.73;;
69822;SDS011;57119;52.516;13.508;2022-12-07T07:12:41;27.20;;;10.25;;
69822;SDS011;57119;52.516;13.508;2022-12-07T07:15:07;25.63;;;10.43;;
69822;SDS011;57119;52.516;13.508;2022-12-07T07:17:41;28.25;;;11.38;;
69822;SDS011;57119;52.516;13.508;2022-12-07T07:20:07;27.50;;;10.93;;
69822;SDS011;57119;52.516;13.508;2022-12-07T07:22:33;27.40;;;10.07;;
69822;SDS011;57119;52.516;13.508;2022-12-07T07:25:07;23.67;;;9.82;;
69822;SDS011;57119;52.516;13.508;2022-12-07T07:27:39;25.77;;;11.15;;
69822;SDS011;57119;52.516;13.508;2022-12-07T07:30:11;23.80;;;8.77;;
69822;SDS011;57119;52.516;13.508;2022-12-07T07:32:37;26.15;;;10.05;;
69822;SDS011;57119;52.516;13.508;2022-12-07T07:35:03;25.00;;;10.37;;
69822;SDS011;57119;52.516;13.508;2022-12-07T07:37:29;25.60;;;9.57;;
69822;SDS011;57119;52.516;13.508;2022-12-07T07:39:54;23.42;;;9.05;;
69822;SDS011;57119;52.516;13.508;2022-12-07T07:42:27;20.07;;;7.67;;
69822;SDS011;57119;52.516;13.508;2022-12-07T07:45:01;24.17;;;8.38;;
69822;SDS011;57119;52.516;13.508;2022-12-07T07:47:30;21.73;;;8.75;;
69822;SDS011;57119;52.516;13.508;2022-12-07T07:49:56;18.70;;;8.00;;
69822;SDS011;57119;52.516;13.508;2022-12-07T07:52:27;19.67;;;9.00;;
69822;SDS011;57119;52.516;13.508;2022-12-07T07:55:02;21.17;;;8.85;;
69822;SDS011;57119;52.516;13.508;2022-12-07T07:57:28;18.45;;;7.88;;
69822;SDS011;57119;52.516;13.508;2022-12-07T07:59:54;16.70;;;6.97;;
69822;SDS011;57119;52.516;13.508;2022-12-07T08:02:23;17.15;;;7.65;;
69822;SDS011;57119;52.516;13.508;2022-12-07T08:04:49;16.13;;;6.50;;
69822;SDS011;57119;52.516;13.508;2022-12-07T08:07:15;16.00;;;6.33;;
69822;SDS011;57119;52.516;13.508;2022-12-07T08:09:41;16.08;;;6.15;;
69822;SDS011;57119;52.516;13.508;2022-12-07T08:12:07;13.30;;;5.75;;
69822;SDS011;57119;52.516;13.508;2022-12-07T08:14:33;17.87;;;8.43;;
69822;SDS011;57119;52.516;13.508;2022-12-07T08:16:59;14.80;;;6.47;;
69822;SDS011;57119;52.516;13.508;2022-12-07T08:19:25;12.47;;;5.27;;
69822;SDS011;57119;52.516;13.508;2022-12-07T08:21:53;14.20;;;5.25;;
69822;SDS011;57119;52.516;13.508;2022-12-07T08:24:23;15.98;;;6.32;;
69822;SDS011;57119;52.516;13.508;2022-12-07T08:26:52;13.13;;;5.32;;
69822;SDS011;57119;52.516;13.508;2022-12-07T08:29:17;11.80;;;4.35;;
69822;SDS011;57119;52.516;13.508;2022-12-07T08:31:46;14.27;;;3.83;;
69822;SDS011;57119;52.516;13.508;2022-12-07T08:34:12;11.93;;;4.22;;
69822;SDS011;57119;52.516;13.508;2022-12-07T08:36:40;16.00;;;4.70;;
69822;SDS011;57119;52.516;13.508;2022-12-07T08:39:09;10.27;;;3.05;;
69822;SDS011;57119;52.516;13.508;2022-12-07T08:41:35;9.95;;;3.60;;
69822;SDS011;57119;52.516;13.508;2022-12-07T08:44:04;10.38;;;4.15;;
69822;SDS011;57119;52.516;13.508;2022-12-07T08:46:50;8.80;;;3.33;;
69822;SDS011;57119;52.516;13.508;2022-12-07T08:49:20;7.60;;;2.83;;
69822;SDS011;57119;52.516;13.508;2022-12-07T08:51:50;10.65;;;3.88;;
69822;SDS011;57119;52.516;13.508;2022-12-07T08:54:16;7.07;;;2.90;;
69822;SDS011;57119;52.516;13.508;2022-12-07T08:56:44;7.43;;;2.70;;
69822;SDS011;57119;52.516;13.508;2022-12-07T08:59:14;6.78;;;2.58;;
69822;SDS011;57119;52.516;13.508;2022-12-07T09:01:42;9.82;;;2.80;;
69822;SDS011;57119;52.516;13.508;2022-12-07T09:04:13;9.30;;;3.08;;
69822;SDS011;57119;52.516;13.508;2022-12-07T09:06:40;7.17;;;2.50;;
69822;SDS011;57119;52.516;13.508;2022-12-07T09:09:06;7.32;;;2.58;;
69822;SDS011;57119;52.516;13.508;2022-12-07T09:11:36;5.97;;;2.00;;
69822;SDS011;57119;52.516;13.508;2022-12-07T09:14:02;6.80;;;2.20;;
69822;SDS011;57119;52.516;13.508;2022-12-07T09:16:28;6.97;;;1.95;;
69822;SDS011;57119;52.516;13.508;2022-12-07T09:18:56;6.67;;;1.83;;
69822;SDS011;57119;52.516;13.508;2022-12-07T09:21:24;6.45;;;1.98;;
69822;SDS011;57119;52.516;13.508;2022-12-07T09:23:50;4.25;;;1.50;;
69822;SDS011;57119;52.516;13.508;2022-12-07T09:26:16;5.07;;;1.47;;
69822;SDS011;57119;52.516;13.508;2022-12-07T09:28:41;5.00;;;1.63;;
69822;SDS011;57119;52.516;13.508;2022-12-07T09:31:10;6.37;;;2.10;;
69822;SDS011;57119;52.516;13.508;2022-12-07T09:33:44;7.22;;;1.25;;
69822;SDS011;57119;52.516;13.508;2022-12-07T09:36:10;5.10;;;1.23;;
69822;SDS011;57119;52.516;13.508;2022-12-07T09:38:35;4.17;;;1.00;;
69822;SDS011;57119;52.516;13.508;2022-12-07T09:41:05;4.47;;;1.27;;
69822;SDS011;57119;52.516;13.508;2022-12-07T09:43:35;5.00;;;1.63;;
69822;SDS011;57119;52.516;13.508;2022-12-07T09:46:04;4.60;;;1.20;;
69822;SDS011;57119;52.516;13.508;2022-12-07T09:48:33;6.20;;;1.60;;
69822;SDS011;57119;52.516;13.508;2022-12-07T09:51:02;4.93;;;1.35;;
69822;SDS011;57119;52.516;13.508;2022-12-07T09:53:30;5.30;;;1.48;;
69822;SDS011;57119;52.516;13.508;2022-12-07T09:56:02;3.92;;;1.08;;
69822;SDS011;57119;52.516;13.508;2022-12-07T09:58:28;5.57;;;1.70;;
69822;SDS011;57119;52.516;13.508;2022-12-07T10:01:00;3.95;;;1.27;;
69822;SDS011;57119;52.516;13.508;2022-12-07T10:03:31;5.03;;;1.30;;
69822;SDS011;57119;52.516;13.508;2022-12-07T10:05:57;4.43;;;1.25;;
69822;SDS011;57119;52.516;13.508;2022-12-07T10:08:25;3.90;;;1.02;;
69822;SDS011;57119;52.516;13.508;2022-12-07T10:10:52;3.60;;;1.10;;
69822;SDS011;57119;52.516;13.508;2022-12-07T10:13:32;4.00;;;1.00;;
69822;SDS011;57119;52.516;13.508;2022-12-07T10:16:00;5.45;;;1.90;;
69822;SDS011;57119;52.516;13.508;2022-12-07T10:18:39;3.67;;;1.10;;
69822;SDS011;57119;52.516;13.508;2022-12-07T10:23:37;4.55;;;1.52;;
69822;SDS011;57119;52.516;13.508;2022-12-07T10:29:28;5.07;;;1.30;;
69822;SDS011;57119;52.516;13.508;2022-12-07T10:34:40;4.57;;;1.60;;
69822;SDS011;57119;52.516;13.508;2022-12-07T10:42:18;4.65;;;1.33;;
69822;SDS011;57119;52.516;13.508;2022-12-07T10:44:45;4.70;;;1.70;;
69822;SDS011;57119;52.516;13.508;2022-12-07T11:01:02;4.73;;;1.50;;
69822;SDS011;57119;52.516;13.508;2022-12-07T11:06:16;4.70;;;1.40;;
69822;SDS011;57119;52.516;13.508;2022-12-07T11:12:56;5.07;;;1.70;;
69822;SDS011;57119;52.516;13.508;2022-12-07T11:17:54;4.83;;;1.67;;
69822;SDS011;57119;52.516;13.508;2022-12-07T11:32:07;5.27;;;1.70;;
69822;SDS011;57119;52.516;13.508;2022-12-07T11:37:09;6.70;;;1.90;;
69822;SDS011;57119;52.516;13.508;2022-12-07T11:39:42;15.57;;;1.80;;
69822;SDS011;57119;52.516;13.508;2022-12-07T11:42:22;7.07;;;2.33;;
69822;SDS011;57119;52.516;13.508;2022-12-07T11:44:57;5.43;;;1.80;;
69822;SDS011;57119;52.516;13.508;2022-12-07T11:50:19;7.07;;;2.10;;
69822;SDS011;57119;52.516;13.508;2022-12-07T11:52:54;7.45;;;2.30;;
69822;SDS011;57119;52.516;13.508;2022-12-07T12:06:32;8.45;;;3.00;;
69822;SDS011;57119;52.516;13.508;2022-12-07T12:09:04;7.70;;;2.60;;
69822;SDS011;57119;52.516;13.508;2022-12-07T12:22:39;7.45;;;2.40;;
69822;SDS011;57119;52.516;13.508;2022-12-07T12:25:20;6.73;;;2.50;;
69822;SDS011;57119;52.516;13.508;2022-12-07T12:31:31;8.07;;;2.38;;
69822;SDS011;57119;52.516;13.508;2022-12-07T12:34:29;8.90;;;2.60;;
69822;SDS011;57119;52.516;13.508;2022-12-07T12:52:54;6.30;;;1.60;;
69822;SDS011;57119;52.516;13.508;2022-12-07T12:55:43;7.32;;;1.77;;
69822;SDS011;57119;52.516;13.508;2022-12-07T12:58:33;9.57;;;1.48;;
69822;SDS011;57119;52.516;13.508;2022-12-07T13:02:00;5.63;;;1.67;;
69822;SDS011;57119;52.516;13.508;2022-12-07T13:04:00;6.00;;;1.73;;
69822;SDS011;57119;52.516;13.508;2022-12-07T13:08:54;6.87;;;1.77;;
69822;SDS011;57119;52.516;13.508;2022-12-07T13:11:36;5.67;;;1.20;;
69822;SDS011;57119;52.516;13.508;2022-12-07T13:17:11;4.97;;;1.23;;
69822;SDS011;57119;52.516;13.508;2022-12-07T13:19:55;4.38;;;1.42;;
69822;SDS011;57119;52.516;13.508;2022-12-07T13:25:01;7.82;;;1.95;;
69822;SDS011;57119;52.516;13.508;2022-12-07T13:27:32;6.53;;;1.70;;
69822;SDS011;57119;52.516;13.508;2022-12-07T13:29:59;9.55;;;1.75;;
69822;SDS011;57119;52.516;13.508;2022-12-07T13:32:27;7.60;;;1.50;;
69822;SDS011;57119;52.516;13.508;2022-12-07T13:34:54;8.77;;;1.38;;
69822;SDS011;57119;52.516;13.508;2022-12-07T13:37:27;6.43;;;1.35;;
69822;SDS011;57119;52.516;13.508;2022-12-07T13:39:56;6.50;;;1.40;;
69822;SDS011;57119;52.516;13.508;2022-12-07T13:44:59;7.15;;;1.38;;
69822;SDS011;57119;52.516;13.508;2022-12-07T13:50:01;6.13;;;1.48;;
69822;SDS011;57119;52.516;13.508;2022-12-07T13:52:47;4.77;;;1.43;;
69822;SDS011;57119;52.516;13.508;2022-12-07T13:55:14;13.20;;;1.75;;
69822;SDS011;57119;52.516;13.508;2022-12-07T13:57:44;7.55;;;1.70;;
69822;SDS011;57119;52.516;13.508;2022-12-07T14:03:04;6.13;;;1.00;;
69822;SDS011;57119;52.516;13.508;2022-12-07T14:05:37;7.60;;;1.53;;
69822;SDS011;57119;52.516;13.508;2022-12-07T14:08:20;6.70;;;1.48;;
69822;SDS011;57119;52.516;13.508;2022-12-07T14:15:58;4.65;;;1.30;;
69822;SDS011;57119;52.516;13.508;2022-12-07T14:18:29;5.23;;;1.20;;
69822;SDS011;57119;52.516;13.508;2022-12-07T14:21:05;7.68;;;1.85;;
69822;SDS011;57119;52.516;13.508;2022-12-07T14:23:39;7.68;;;1.20;;
69822;SDS011;57119;52.516;13.508;2022-12-07T14:26:27;4.63;;;1.05;;
69822;SDS011;57119;52.516;13.508;2022-12-07T14:28:59;6.80;;;1.20;;
69822;SDS011;57119;52.516;13.508;2022-12-07T14:32:27;8.45;;;1.45;;
69822;SDS011;57119;52.516;13.508;2022-12-07T14:35:01;5.57;;;1.55;;
69822;SDS011;57119;52.516;13.508;2022-12-07T14:37:40;7.00;;;1.67;;
69822;SDS011;57119;52.516;13.508;2022-12-07T14:40:09;9.07;;;1.63;;
69822;SDS011;57119;52.516;13.508;2022-12-07T14:42:42;5.55;;;1.35;;
69822;SDS011;57119;52.516;13.508;2022-12-07T14:45:16;11.68;;;1.30;;
69822;SDS011;57119;52.516;13.508;2022-12-07T14:47:45;8.02;;;1.40;;
69822;SDS011;57119;52.516;13.508;2022-12-07T14:50:15;9.83;;;1.50;;
69822;SDS011;57119;52.516;13.508;2022-12-07T14:52:54;7.10;;;1.48;;
69822;SDS011;57119;52.516;13.508;2022-12-07T14:58:02;8.95;;;1.92;;
69822;SDS011;57119;52.516;13.508;2022-12-07T15:00:28;5.80;;;1.43;;
69822;SDS011;57119;52.516;13.508;2022-12-07T15:02:54;9.50;;;1.60;;
69822;SDS011;57119;52.516;13.508;2022-12-07T15:05:21;5.40;;;1.50;;
69822;SDS011;57119;52.516;13.508;2022-12-07T15:07:52;10.60;;;2.20;;
69822;SDS011;57119;52.516;13.508;2022-12-07T15:10:25;6.97;;;1.77;;
69822;SDS011;57119;52.516;13.508;2022-12-07T15:13:04;5.53;;;1.10;;
69822;SDS011;57119;52.516;13.508;2022-12-07T15:15:49;5.47;;;1.45;;
69822;SDS011;57119;52.516;13.508;2022-12-07T15:18:24;5.77;;;1.20;;
69822;SDS011;57119;52.516;13.508;2022-12-07T15:20:50;12.38;;;1.70;;
69822;SDS011;57119;52.516;13.508;2022-12-07T15:23:16;9.82;;;1.40;;
69822;SDS011;57119;52.516;13.508;2022-12-07T15:25:46;8.65;;;1.45;;
69822;SDS011;57119;52.516;13.508;2022-12-07T15:28:13;7.35;;;1.27;;
69822;SDS011;57119;52.516;13.508;2022-12-07T15:30:40;11.67;;;1.60;;
69822;SDS011;57119;52.516;13.508;2022-12-07T15:33:10;6.85;;;1.33;;
69822;SDS011;57119;52.516;13.508;2022-12-07T15:35:42;10.73;;;1.60;;
69822;SDS011;57119;52.516;13.508;2022-12-07T15:38:09;5.57;;;1.05;;
69822;SDS011;57119;52.516;13.508;2022-12-07T15:40:35;8.47;;;1.17;;
69822;SDS011;57119;52.516;13.508;2022-12-07T15:43:01;8.23;;;1.25;;
69822;SDS011;57119;52.516;13.508;2022-12-07T15:45:27;6.10;;;1.17;;
69822;SDS011;57119;52.516;13.508;2022-12-07T15:47:55;10.27;;;1.30;;
69822;SDS011;57119;52.516;13.508;2022-12-07T15:50:21;9.27;;;1.40;;
69822;SDS011;57119;52.516;13.508;2022-12-07T15:52:50;3.97;;;1.00;;
69822;SDS011;57119;52.516;13.508;2022-12-07T15:55:15;8.23;;;1.33;;
69822;SDS011;57119;52.516;13.508;2022-12-07T15:57:47;7.65;;;1.50;;
69822;SDS011;57119;52.516;13.508;2022-12-07T16:00:14;6.00;;;1.45;;
69822;SDS011;57119;52.516;13.508;2022-12-07T16:02:40;5.43;;;1.20;;
69822;SDS011;57119;52.516;13.508;2022-12-07T16:05:06;11.13;;;1.60;;
69822;SDS011;57119;52.516;13.508;2022-12-07T16:07:34;7.90;;;1.35;;
69822;SDS011;57119;52.516;13.508;2022-12-07T16:09:59;11.50;;;2.00;;
69822;SDS011;57119;52.516;13.508;2022-12-07T16:12:25;7.10;;;1.50;;
69822;SDS011;57119;52.516;13.508;2022-12-07T16:14:53;6.10;;;1.17;;
69822;SDS011;57119;52.516;13.508;2022-12-07T16:17:19;5.53;;;1.20;;
69822;SDS011;57119;52.516;13.508;2022-12-07T16:19:44;5.47;;;1.60;;
69822;SDS011;57119;52.516;13.508;2022-12-07T16:22:10;7.27;;;1.90;;
69822;SDS011;57119;52.516;13.508;2022-12-07T16:24:38;9.80;;;1.40;;
69822;SDS011;57119;52.516;13.508;2022-12-07T16:27:07;6.60;;;1.45;;
69822;SDS011;57119;52.516;13.508;2022-12-07T16:29:32;5.53;;;1.50;;
69822;SDS011;57119;52.516;13.508;2022-12-07T16:31:58;7.88;;;1.33;;
69822;SDS011;57119;52.516;13.508;2022-12-07T16:34:23;7.63;;;1.60;;
69822;SDS011;57119;52.516;13.508;2022-12-07T16:36:49;6.70;;;1.75;;
69822;SDS011;57119;52.516;13.508;2022-12-07T16:39:21;6.83;;;1.60;;
69822;SDS011;57119;52.516;13.508;2022-12-07T16:41:46;9.07;;;1.65;;
69822;SDS011;57119;52.516;13.508;2022-12-07T16:44:18;8.60;;;2.40;;
69822;SDS011;57119;52.516;13.508;2022-12-07T16:46:46;10.17;;;2.40;;
69822;SDS011;57119;52.516;13.508;2022-12-07T16:49:12;11.45;;;1.98;;
69822;SDS011;57119;52.516;13.508;2022-12-07T16:51:44;8.07;;;1.70;;
69822;SDS011;57119;52.516;13.508;2022-12-07T16:54:12;7.25;;;1.63;;
69822;SDS011;57119;52.516;13.508;2022-12-07T16:56:38;8.75;;;2.05;;
69822;SDS011;57119;52.516;13.508;2022-12-07T16:59:03;8.63;;;2.00;;
69822;SDS011;57119;52.516;13.508;2022-12-07T17:01:31;7.03;;;1.60;;
69822;SDS011;57119;52.516;13.508;2022-12-07T17:04:02;5.50;;;1.38;;
69822;SDS011;57119;52.516;13.508;2022-12-07T17:06:29;8.18;;;1.65;;
69822;SDS011;57119;52.516;13.508;2022-12-07T17:08:58;6.28;;;1.67;;
69822;SDS011;57119;52.516;13.508;2022-12-07T17:11:25;9.10;;;1.63;;
69822;SDS011;57119;52.516;13.508;2022-12-07T17:13:52;7.30;;;1.65;;